createdAt,value
2019-03-31T00:01:57.186Z,62.95
2019-03-31T00:04:29.802Z,68.25
2019-03-31T00:07:02.269Z,66.53
2019-03-31T00:09:34.561Z,67.92
2019-03-31T00:12:06.777Z,81.47
2019-03-31T00:14:39.074Z,66.55
2019-03-31T00:17:11.335Z,63.60
2019-03-31T00:19:43.488Z,69.07
2019-03-31T00:22:15.618Z,50.10
2019-03-31T00:24:48.405Z,134.43
2019-03-31T00:27:20.577Z,61.15
2019-03-31T00:29:52.860Z,97.30
2019-03-31T00:32:25.384Z,58.87
2019-03-31T00:34:57.810Z,71.87
2019-03-31T00:37:30.085Z,63.68
2019-03-31T00:40:03.327Z,64.20
2019-03-31T00:42:35.479Z,71.30
2019-03-31T00:45:09.045Z,72.50
2019-03-31T00:47:41.312Z,65.67
2019-03-31T00:50:13.599Z,67.72
2019-03-31T00:52:45.939Z,98.22
2019-03-31T00:55:18.675Z,69.53
2019-03-31T00:57:51.045Z,74.80
2019-03-31T01:00:24.694Z,96.67
2019-03-31T01:03:00.778Z,54.42
2019-03-31T01:05:33.133Z,57.62
2019-03-31T01:08:05.759Z,53.48
2019-03-31T01:10:38.241Z,63.52
2019-03-31T01:13:10.667Z,138.90
2019-03-31T01:15:44.556Z,84.07
2019-03-31T01:18:16.806Z,84.87
2019-03-31T01:20:49.081Z,55.65
2019-03-31T01:23:21.486Z,55.55
2019-03-31T01:25:53.980Z,66.82
2019-03-31T01:28:26.263Z,81.80
2019-03-31T01:30:58.815Z,102.32
2019-03-31T01:33:31.041Z,78.35
2019-03-31T01:36:03.344Z,98.77
2019-03-31T01:38:35.591Z,116.95
2019-03-31T01:41:07.670Z,107.00
2019-03-31T01:43:40.025Z,92.42
2019-03-31T01:46:14.098Z,87.00
2019-03-31T01:48:47.564Z,88.03
2019-03-31T01:51:19.737Z,100.00
2019-03-31T01:53:52.065Z,92.62
2019-03-31T01:56:24.473Z,70.12
2019-03-31T01:58:56.721Z,156.50
2019-03-31T02:01:29.012Z,65.20
2019-03-31T02:04:03.019Z,70.55
2019-03-31T02:06:35.704Z,102.43
2019-03-31T02:09:08.156Z,76.72
2019-03-31T02:11:40.432Z,50.58
2019-03-31T02:14:12.706Z,82.37
2019-03-31T02:16:45.078Z,64.97
2019-03-31T02:19:17.209Z,49.80
2019-03-31T02:21:49.399Z,97.05
2019-03-31T02:24:21.553Z,88.77
2019-03-31T02:26:54.194Z,52.85
2019-03-31T02:29:26.455Z,91.53
2019-03-31T02:31:58.764Z,108.95
2019-03-31T02:34:31.036Z,95.67
2019-03-31T02:37:03.524Z,48.63
2019-03-31T02:39:35.754Z,88.90
2019-03-31T02:42:08.114Z,110.20
2019-03-31T02:44:40.389Z,43.65
2019-03-31T02:47:12.760Z,123.35
2019-03-31T02:49:45.238Z,71.13
2019-03-31T02:52:17.541Z,47.03
2019-03-31T02:54:49.895Z,73.30
2019-03-31T02:57:23.899Z,52.90
2019-03-31T02:59:56.221Z,60.63
2019-03-31T03:02:41.349Z,74.82
2019-03-31T03:05:19.000Z,103.40
2019-03-31T03:07:40.777Z,67.47
2019-03-31T03:10:13.051Z,91.08
2019-03-31T03:12:45.348Z,57.23
2019-03-31T03:15:20.427Z,107.80
2019-03-31T03:17:52.596Z,88.62
2019-03-31T03:20:25.952Z,99.37
2019-03-31T03:22:58.199Z,64.77
2019-03-31T03:25:30.531Z,60.17
2019-03-31T03:28:03.195Z,68.10
2019-03-31T03:30:35.513Z,65.30
2019-03-31T03:33:17.560Z,64.22
2019-03-31T03:35:41.429Z,116.73
2019-03-31T03:38:13.623Z,38.90
2019-03-31T03:40:45.851Z,91.77
2019-03-31T03:43:18.130Z,54.40
2019-03-31T03:45:50.374Z,121.13
2019-03-31T03:48:22.698Z,104.27
2019-03-31T03:50:54.857Z,67.95
2019-03-31T03:53:27.182Z,49.98
2019-03-31T03:55:59.561Z,59.13
2019-03-31T03:58:31.930Z,103.85
2019-03-31T04:01:05.355Z,62.75
2019-03-31T04:03:37.697Z,81.57
2019-03-31T04:06:10.955Z,54.25
2019-03-31T04:08:43.264Z,95.93
2019-03-31T04:11:21.169Z,66.42
2019-03-31T04:13:51.753Z,66.42
2019-03-31T04:16:23.881Z,92.42
2019-03-31T04:18:56.188Z,76.80
2019-03-31T04:21:28.820Z,118.57
2019-03-31T04:24:01.212Z,109.05
2019-03-31T04:26:33.461Z,51.05
2019-03-31T04:29:05.869Z,80.38
2019-03-31T04:31:38.039Z,52.38
2019-03-31T04:34:10.366Z,125.55
2019-03-31T04:36:42.754Z,46.35
2019-03-31T04:39:15.013Z,69.87
2019-03-31T04:41:48.563Z,42.50
2019-03-31T04:44:20.747Z,55.35
2019-03-31T04:46:52.890Z,93.80
2019-03-31T04:49:25.100Z,148.28
2019-03-31T04:51:57.344Z,37.20
2019-03-31T04:54:29.646Z,50.95
2019-03-31T04:57:04.424Z,61.37
2019-03-31T04:59:35.754Z,44.27
2019-03-31T05:02:09.212Z,44.23
2019-03-31T05:04:41.433Z,81.87
2019-03-31T05:07:15.469Z,78.70
2019-03-31T05:09:47.758Z,58.80
2019-03-31T05:12:20.066Z,59.03
2019-03-31T05:14:52.445Z,50.53
2019-03-31T05:17:24.727Z,43.60
2019-03-31T05:19:57.086Z,94.70
2019-03-31T05:22:29.559Z,117.40
2019-03-31T05:25:02.054Z,93.10
2019-03-31T05:27:34.360Z,104.43
2019-03-31T05:30:07.991Z,52.20
2019-03-31T05:32:40.157Z,71.82
2019-03-31T05:35:12.455Z,40.55
2019-03-31T05:37:51.127Z,63.10
2019-03-31T05:40:18.515Z,56.77
2019-03-31T05:42:51.911Z,122.55
2019-03-31T05:45:24.272Z,158.18
2019-03-31T05:47:56.510Z,125.82
2019-03-31T05:50:28.776Z,77.47
2019-03-31T05:53:00.950Z,40.88
2019-03-31T05:55:33.127Z,79.80
2019-03-31T05:58:05.599Z,91.55
2019-03-31T06:00:39.288Z,63.58
2019-03-31T06:03:11.439Z,99.05
2019-03-31T06:05:43.608Z,161.62
2019-03-31T06:08:17.902Z,68.75
2019-03-31T06:10:50.234Z,92.53
2019-03-31T06:13:22.495Z,63.20
2019-03-31T06:15:55.371Z,74.87
2019-03-31T06:18:27.622Z,85.57
2019-03-31T06:21:00.918Z,67.27
2019-03-31T06:23:34.187Z,63.75
2019-03-31T06:26:06.445Z,71.87
2019-03-31T06:28:38.662Z,125.50
2019-03-31T06:31:11.078Z,46.02
2019-03-31T06:33:43.346Z,53.70
2019-03-31T06:36:15.623Z,118.67
2019-03-31T06:38:47.994Z,116.97
2019-03-31T06:41:20.179Z,48.68
2019-03-31T06:43:52.427Z,51.28
2019-03-31T06:46:24.683Z,82.45
2019-03-31T06:48:56.908Z,66.87
2019-03-31T06:51:29.098Z,100.30
2019-03-31T06:54:01.473Z,68.92
2019-03-31T06:56:33.643Z,106.67
2019-03-31T06:59:05.917Z,63.40
2019-03-31T07:01:38.372Z,74.20
2019-03-31T07:04:10.758Z,71.57
2019-03-31T07:06:42.964Z,43.50
2019-03-31T07:09:17.740Z,89.87
2019-03-31T07:11:50.040Z,62.45
2019-03-31T07:14:22.274Z,59.75
2019-03-31T07:16:54.564Z,75.05
2019-03-31T07:19:26.952Z,80.72
2019-03-31T07:21:59.230Z,47.60
2019-03-31T07:24:31.567Z,84.13
2019-03-31T07:27:03.933Z,84.67
2019-03-31T07:29:36.196Z,45.92
2019-03-31T07:32:08.724Z,64.32
2019-03-31T07:34:41.085Z,55.63
2019-03-31T07:37:13.580Z,88.92
2019-03-31T07:39:46.217Z,54.77
2019-03-31T07:42:18.997Z,90.90
2019-03-31T07:44:51.262Z,46.10
2019-03-31T07:47:23.558Z,49.08
2019-03-31T07:49:55.794Z,45.57
2019-03-31T07:52:28.098Z,75.40
2019-03-31T07:55:00.458Z,84.67
2019-03-31T07:57:32.622Z,86.13
2019-03-31T08:00:05.337Z,110.95
2019-03-31T08:02:37.921Z,84.60
2019-03-31T08:05:10.554Z,52.85
2019-03-31T08:07:42.837Z,118.82
2019-03-31T08:10:19.555Z,60.23
2019-03-31T08:12:51.931Z,63.30
2019-03-31T08:15:24.358Z,53.15
2019-03-31T08:17:56.941Z,76.95
2019-03-31T08:20:29.323Z,74.60
2019-03-31T08:23:01.586Z,33.42
2019-03-31T08:25:35.339Z,96.95
2019-03-31T08:28:07.715Z,74.62
2019-03-31T08:30:39.972Z,66.55
2019-03-31T08:33:12.289Z,64.37
2019-03-31T08:35:47.647Z,64.40
2019-03-31T08:38:18.018Z,63.92
2019-03-31T08:40:50.386Z,48.75
2019-03-31T08:43:22.681Z,54.58
2019-03-31T08:45:54.921Z,61.90
2019-03-31T08:48:27.302Z,71.05
2019-03-31T08:50:59.601Z,65.20
2019-03-31T08:53:31.958Z,75.03
2019-03-31T08:56:04.160Z,62.93
2019-03-31T08:58:36.652Z,48.10
2019-03-31T09:01:10.230Z,81.32
2019-03-31T09:03:42.778Z,63.15
2019-03-31T09:06:15.027Z,68.22
2019-03-31T09:08:47.613Z,66.77
2019-03-31T09:11:21.650Z,47.83
2019-03-31T09:13:53.940Z,70.75
2019-03-31T09:16:27.342Z,42.65
2019-03-31T09:18:59.699Z,80.87
2019-03-31T09:21:31.970Z,88.20
2019-03-31T09:24:04.153Z,59.03
2019-03-31T09:26:36.493Z,50.38
2019-03-31T09:29:08.838Z,96.78
2019-03-31T09:31:42.016Z,86.40
2019-03-31T09:34:14.546Z,138.52
2019-03-31T09:36:47.320Z,102.62
2019-03-31T09:39:19.702Z,60.70
2019-03-31T09:41:52.069Z,55.63
2019-03-31T09:44:24.520Z,90.53
2019-03-31T09:46:56.907Z,102.53
2019-03-31T09:49:29.294Z,60.73
2019-03-31T09:52:01.530Z,61.23
2019-03-31T09:54:33.819Z,58.55
2019-03-31T09:57:06.373Z,119.55
2019-03-31T09:59:39.693Z,81.87
2019-03-31T10:02:12.111Z,63.80
2019-03-31T10:04:44.787Z,76.85
2019-03-31T10:07:16.949Z,53.75
2019-03-31T10:09:49.118Z,97.30
2019-03-31T10:12:22.357Z,45.33
2019-03-31T10:14:54.530Z,102.40
2019-03-31T10:17:26.770Z,79.00
2019-03-31T10:19:58.963Z,70.35
2019-03-31T10:22:31.224Z,86.75
2019-03-31T10:25:03.493Z,46.90
2019-03-31T10:27:35.721Z,63.83
2019-03-31T10:30:09.796Z,62.17
2019-03-31T10:32:42.016Z,45.83
2019-03-31T10:35:14.658Z,65.67
2019-03-31T10:37:46.907Z,75.17
2019-03-31T10:40:19.191Z,77.60
2019-03-31T10:42:51.554Z,51.23
2019-03-31T10:45:24.051Z,123.43
2019-03-31T10:47:56.288Z,78.67
2019-03-31T10:50:28.559Z,56.75
2019-03-31T10:53:00.802Z,71.13
2019-03-31T10:55:34.037Z,77.95
2019-03-31T10:58:06.186Z,70.25
2019-03-31T11:00:40.002Z,104.80
2019-03-31T11:03:12.220Z,76.65
2019-03-31T11:05:44.541Z,61.43
2019-03-31T11:08:16.781Z,80.28
2019-03-31T11:10:49.378Z,96.65
2019-03-31T11:13:24.509Z,34.30
2019-03-31T11:15:57.610Z,90.77
2019-03-31T11:18:29.932Z,78.92
2019-03-31T11:21:03.301Z,58.35
2019-03-31T11:23:35.615Z,100.03
2019-03-31T11:26:08.001Z,78.75
2019-03-31T11:28:40.373Z,126.92
2019-03-31T11:31:12.660Z,114.92
2019-03-31T11:33:46.646Z,120.90
2019-03-31T11:36:19.078Z,118.85
2019-03-31T11:38:52.745Z,72.67
2019-03-31T11:41:25.057Z,112.37
2019-03-31T11:43:57.254Z,82.17
2019-03-31T11:46:29.684Z,167.60
2019-03-31T11:49:01.951Z,115.28
2019-03-31T11:51:34.122Z,38.60
2019-03-31T11:54:06.317Z,84.58
2019-03-31T11:56:38.545Z,78.80
2019-03-31T11:59:11.925Z,50.58
2019-03-31T12:01:44.405Z,68.60
2019-03-31T12:04:16.549Z,75.37
2019-03-31T12:06:49.003Z,43.38
2019-03-31T12:09:21.284Z,34.67
2019-03-31T12:11:53.766Z,40.50
2019-03-31T12:14:28.764Z,32.95
2019-03-31T12:17:01.184Z,30.80
2019-03-31T12:19:33.411Z,92.73
2019-03-31T12:22:05.611Z,36.10
2019-03-31T12:24:38.055Z,29.15
2019-03-31T12:27:10.322Z,33.18
2019-03-31T12:29:42.516Z,38.90
2019-03-31T12:32:14.904Z,51.02
2019-03-31T12:34:47.342Z,37.35
2019-03-31T12:37:19.698Z,35.35
2019-03-31T12:39:51.927Z,53.60
2019-03-31T12:42:24.696Z,34.03
2019-03-31T12:44:56.967Z,58.92
2019-03-31T12:47:29.746Z,36.93
2019-03-31T12:50:02.000Z,291.32
2019-03-31T12:52:46.128Z,504.67
2019-03-31T12:55:08.502Z,476.43
2019-03-31T12:57:41.943Z,416.65
2019-03-31T13:00:14.247Z,53.40
2019-03-31T13:02:46.570Z,20.83
2019-03-31T13:05:18.817Z,35.20
2019-03-31T13:07:56.488Z,19.73
2019-03-31T13:10:25.879Z,20.12
2019-03-31T13:12:58.165Z,19.67
2019-03-31T13:15:31.169Z,20.05
2019-03-31T13:18:03.471Z,18.52
2019-03-31T13:20:35.983Z,18.02
2019-03-31T13:23:08.166Z,16.70
2019-03-31T13:25:40.344Z,15.98
2019-03-31T13:28:12.893Z,17.87
2019-03-31T13:30:45.181Z,17.82
2019-03-31T13:33:17.520Z,17.92
2019-03-31T13:35:53.033Z,16.50
2019-03-31T13:38:23.614Z,18.90
2019-03-31T13:40:55.938Z,19.48
2019-03-31T13:43:28.223Z,18.10
2019-03-31T13:46:00.482Z,18.47
2019-03-31T13:48:32.777Z,18.75
2019-03-31T13:51:05.055Z,19.98
2019-03-31T13:53:38.219Z,20.85
2019-03-31T13:56:11.134Z,22.25
2019-03-31T13:58:43.819Z,21.42
2019-03-31T14:01:16.917Z,21.82
2019-03-31T14:03:49.213Z,21.63
2019-03-31T14:06:22.391Z,22.35
2019-03-31T14:08:54.867Z,23.05
2019-03-31T14:11:27.241Z,22.13
2019-03-31T14:13:59.579Z,21.07
2019-03-31T14:16:32.168Z,22.70
2019-03-31T14:19:04.471Z,21.85
2019-03-31T14:21:39.934Z,20.73
2019-03-31T14:24:10.372Z,22.17
2019-03-31T14:26:42.695Z,21.62
2019-03-31T14:29:15.229Z,21.25
2019-03-31T14:31:47.399Z,21.73
2019-03-31T14:34:19.605Z,20.45
2019-03-31T14:36:51.815Z,20.03
2019-03-31T14:39:24.449Z,19.98
2019-03-31T14:41:56.825Z,20.32
2019-03-31T14:44:29.416Z,20.27
2019-03-31T14:47:02.203Z,20.47
2019-03-31T14:49:34.711Z,21.30
2019-03-31T14:52:07.027Z,21.40
2019-03-31T14:54:39.700Z,21.17
2019-03-31T14:57:11.969Z,21.53
2019-03-31T14:59:44.347Z,21.75
2019-03-31T15:02:16.606Z,21.45
2019-03-31T15:04:48.806Z,21.95
2019-03-31T15:07:20.925Z,22.30
2019-03-31T15:09:55.482Z,22.02
2019-03-31T15:12:27.863Z,22.20
2019-03-31T15:15:00.265Z,21.55
2019-03-31T15:17:32.875Z,21.05
2019-03-31T15:20:06.375Z,18.40
2019-03-31T15:22:38.759Z,17.20
2019-03-31T15:25:14.520Z,16.93
2019-03-31T15:27:46.989Z,16.37
2019-03-31T15:30:19.263Z,16.45
2019-03-31T15:32:51.452Z,16.48
2019-03-31T15:35:23.719Z,16.75
2019-03-31T15:37:55.863Z,16.05
2019-03-31T15:40:32.114Z,15.80
2019-03-31T15:43:04.373Z,15.57
2019-03-31T15:45:36.680Z,15.60
2019-03-31T15:48:09.155Z,16.10
2019-03-31T15:50:41.527Z,15.98
2019-03-31T15:53:13.688Z,15.78
2019-03-31T15:55:45.932Z,16.23
2019-03-31T15:58:18.274Z,16.10
2019-03-31T16:00:51.423Z,15.90
2019-03-31T16:03:23.694Z,16.90
2019-03-31T16:05:55.880Z,16.30
2019-03-31T16:08:28.155Z,34.73
2019-03-31T16:11:00.569Z,27.60
2019-03-31T16:13:32.835Z,28.02
2019-03-31T16:16:05.337Z,19.73
2019-03-31T16:18:37.897Z,20.20
2019-03-31T16:21:10.182Z,16.87
2019-03-31T16:23:42.517Z,16.33
2019-03-31T16:26:14.780Z,16.30
2019-03-31T16:28:47.056Z,16.50
2019-03-31T16:31:19.327Z,16.57
2019-03-31T16:33:51.700Z,16.20
2019-03-31T16:36:23.965Z,15.70
2019-03-31T16:38:56.220Z,15.88
2019-03-31T16:41:28.637Z,15.58
2019-03-31T16:44:01.226Z,15.32
2019-03-31T16:46:33.615Z,15.13
2019-03-31T16:49:05.774Z,15.58
2019-03-31T16:51:38.078Z,17.75
2019-03-31T16:54:10.231Z,16.55
2019-03-31T16:56:42.846Z,17.23
2019-03-31T16:59:15.094Z,16.15
2019-03-31T17:01:47.412Z,16.95
2019-03-31T17:04:20.318Z,17.62
2019-03-31T17:06:52.989Z,17.48
2019-03-31T17:09:25.263Z,16.75
2019-03-31T17:11:57.954Z,16.55
2019-03-31T17:14:30.508Z,16.27
2019-03-31T17:17:02.983Z,16.15
2019-03-31T17:19:35.508Z,16.48
2019-03-31T17:22:07.821Z,15.43
2019-03-31T17:24:39.980Z,15.63
2019-03-31T17:27:14.103Z,15.28
2019-03-31T17:29:45.872Z,15.13
2019-03-31T17:32:18.235Z,15.50
2019-03-31T17:34:50.493Z,15.20
2019-03-31T17:37:22.934Z,15.05
2019-03-31T17:40:05.466Z,15.60
2019-03-31T17:42:28.851Z,15.93
2019-03-31T17:45:00.867Z,16.00
2019-03-31T17:47:34.040Z,15.25
2019-03-31T17:50:06.901Z,15.65
2019-03-31T17:52:39.169Z,15.90
2019-03-31T17:55:11.529Z,15.32
2019-03-31T17:57:44.810Z,15.50
2019-03-31T18:00:17.361Z,15.45
2019-03-31T18:02:49.541Z,17.73
2019-03-31T18:05:21.669Z,16.82
2019-03-31T18:07:53.773Z,15.53
2019-03-31T18:10:26.034Z,15.20
2019-03-31T18:12:59.145Z,15.58
2019-03-31T18:15:31.505Z,14.98
2019-03-31T18:18:03.686Z,15.40
2019-03-31T18:20:36.670Z,17.30
2019-03-31T18:23:08.942Z,16.80
2019-03-31T18:25:41.514Z,15.80
2019-03-31T18:28:13.799Z,18.00
2019-03-31T18:30:46.135Z,21.57
2019-03-31T18:33:18.299Z,22.05
2019-03-31T18:35:50.786Z,22.13
2019-03-31T18:38:24.041Z,23.35
2019-03-31T18:40:56.277Z,20.35
2019-03-31T18:43:28.942Z,18.00
2019-03-31T18:46:01.228Z,18.05
2019-03-31T18:48:33.613Z,16.93
2019-03-31T18:51:05.857Z,18.15
2019-03-31T18:53:39.550Z,17.87
2019-03-31T18:56:13.097Z,17.07
2019-03-31T18:58:46.646Z,17.23
2019-03-31T19:01:20.353Z,23.45
2019-03-31T19:03:54.058Z,20.00
2019-03-31T19:06:27.645Z,19.73
2019-03-31T19:09:01.160Z,18.85
2019-03-31T19:11:36.397Z,19.00
2019-03-31T19:14:10.596Z,20.40
2019-03-31T19:16:44.418Z,21.20
2019-03-31T19:19:18.020Z,21.57
2019-03-31T19:21:51.715Z,30.27
2019-03-31T19:24:25.322Z,26.00
2019-03-31T19:26:58.952Z,23.07
2019-03-31T19:29:32.420Z,20.23
2019-03-31T19:32:05.952Z,21.20
2019-03-31T19:34:39.376Z,21.50
2019-03-31T19:37:12.788Z,22.60
2019-03-31T19:39:46.308Z,28.03
2019-03-31T19:42:21.341Z,23.73
2019-03-31T19:44:55.130Z,26.17
2019-03-31T19:47:28.649Z,23.07
2019-03-31T19:50:02.760Z,23.65
2019-03-31T19:52:36.464Z,23.47
2019-03-31T19:55:10.095Z,23.20
2019-03-31T19:57:43.673Z,24.43
2019-03-31T20:00:17.419Z,26.87
2019-03-31T20:02:50.965Z,47.27
2019-03-31T20:05:24.587Z,52.48
2019-03-31T20:07:58.104Z,51.15
2019-03-31T20:10:31.674Z,24.15
2019-03-31T20:13:05.320Z,29.23
2019-03-31T20:15:40.074Z,36.90
2019-03-31T20:18:14.636Z,23.70
2019-03-31T20:20:48.188Z,24.32
2019-03-31T20:23:22.031Z,46.13
2019-03-31T20:25:55.489Z,50.37
2019-03-31T20:28:28.886Z,26.05
2019-03-31T20:31:02.441Z,24.45
2019-03-31T20:33:36.186Z,28.52
2019-03-31T20:36:10.234Z,25.65
2019-03-31T20:38:44.757Z,23.05
2019-03-31T20:41:18.171Z,23.38
2019-03-31T20:43:51.713Z,23.00
2019-03-31T20:46:24.845Z,22.37
2019-03-31T20:48:57.318Z,23.18
2019-03-31T20:51:29.789Z,22.87
2019-03-31T20:54:02.052Z,22.40
2019-03-31T20:56:35.519Z,21.85
2019-03-31T20:59:07.904Z,23.38
2019-03-31T21:01:40.264Z,23.62
2019-03-31T21:04:12.528Z,25.55
2019-03-31T21:06:44.829Z,26.48
2019-03-31T21:09:17.308Z,34.30
2019-03-31T21:11:49.652Z,25.57
2019-03-31T21:14:21.819Z,25.35
2019-03-31T21:16:55.197Z,24.43
2019-03-31T21:19:27.410Z,23.83
2019-03-31T21:21:59.754Z,23.30
2019-03-31T21:24:32.253Z,24.20
2019-03-31T21:27:04.550Z,23.90
2019-03-31T21:29:36.705Z,24.30
2019-03-31T21:32:08.984Z,24.52
2019-03-31T21:34:41.250Z,24.32
2019-03-31T21:37:13.708Z,25.08
2019-03-31T21:39:45.941Z,24.07
2019-03-31T21:42:18.229Z,25.08
2019-03-31T21:44:50.479Z,25.20
2019-03-31T21:47:22.982Z,24.43
2019-03-31T21:49:55.345Z,25.48
2019-03-31T21:52:27.702Z,24.52
2019-03-31T21:55:01.165Z,25.88
2019-03-31T21:57:33.536Z,26.48
2019-03-31T22:00:07.784Z,27.90
2019-03-31T22:02:41.320Z,28.07
2019-03-31T22:05:13.769Z,27.52
2019-03-31T22:07:46.130Z,28.07
2019-03-31T22:10:18.514Z,29.00
2019-03-31T22:12:50.710Z,29.35
2019-03-31T22:15:23.045Z,28.77
2019-03-31T22:17:56.678Z,28.85
2019-03-31T22:20:29.224Z,28.77
2019-03-31T22:23:01.621Z,28.57
2019-03-31T22:25:33.951Z,29.27
2019-03-31T22:28:06.364Z,29.03
2019-03-31T22:30:38.806Z,28.77
2019-03-31T22:33:10.879Z,29.00
2019-03-31T22:35:44.815Z,28.80
2019-03-31T22:38:17.170Z,27.22
2019-03-31T22:40:49.449Z,29.53
2019-03-31T22:43:21.696Z,29.00
2019-03-31T22:45:53.943Z,29.12
2019-03-31T22:48:26.358Z,30.05
2019-03-31T22:50:58.502Z,30.55
2019-03-31T22:53:30.897Z,29.02
2019-03-31T22:56:03.034Z,30.70
2019-03-31T22:58:35.118Z,29.48
2019-03-31T23:01:07.293Z,30.20
2019-03-31T23:03:39.436Z,30.32
2019-03-31T23:06:11.691Z,29.80
2019-03-31T23:08:43.846Z,31.07
2019-03-31T23:11:16.054Z,31.73
2019-03-31T23:26:44.366Z,36.50
2019-03-31T23:29:16.859Z,36.05
2019-03-31T23:31:49.064Z,47.95
2019-03-31T23:34:21.213Z,44.98
2019-03-31T23:36:53.412Z,40.15
2019-03-31T23:39:25.718Z,44.98
2019-03-31T23:41:58.077Z,42.55
2019-03-31T23:44:30.417Z,42.73
2019-03-31T23:47:02.504Z,41.48
2019-03-31T23:49:34.995Z,39.70
2019-03-31T23:52:07.279Z,39.73
2019-03-31T23:54:39.417Z,38.43
2019-03-31T23:57:11.812Z,38.20
2019-03-31T23:59:44.599Z,35.55
